sensor_id;sensor_type;location;lat;lon;timestamp;P1;durP1;ratioP1;P2;durP2;ratioP2
2522;SDS011;1272;53.332;9.860;2023-04-24T00:00:05;7.30;;;6.80;;
2522;SDS011;1272;53.332;9.860;2023-04-24T00:02:32;5.70;;;5.37;;
2522;SDS011;1272;53.332;9.860;2023-04-24T00:04:58;5.80;;;5.40;;
2522;SDS011;1272;53.332;9.860;2023-04-24T00:07:27;5.63;;;5.23;;
2522;SDS011;1272;53.332;9.860;2023-04-24T00:09:52;5.20;;;4.70;;
2522;SDS011;1272;53.332;9.860;2023-04-24T00:12:18;6.10;;;5.60;;
2522;SDS011;1272;53.332;9.860;2023-04-24T00:14:44;6.80;;;6.20;;
2522;SDS011;1272;53.332;9.860;2023-04-24T00:17:10;5.77;;;5.40;;
2522;SDS011;1272;53.332;9.860;2023-04-24T00:19:36;5.30;;;4.90;;
2522;SDS011;1272;53.332;9.860;2023-04-24T00:22:02;6.13;;;5.73;;
2522;SDS011;1272;53.332;9.860;2023-04-24T00:24:27;6.27;;;5.67;;
2522;SDS011;1272;53.332;9.860;2023-04-24T00:26:53;5.80;;;5.40;;
2522;SDS011;1272;53.332;9.860;2023-04-24T00:29:19;6.53;;;6.00;;
2522;SDS011;1272;53.332;9.860;2023-04-24T00:31:45;6.00;;;5.60;;
2522;SDS011;1272;53.332;9.860;2023-04-24T00:34:10;6.00;;;5.60;;
2522;SDS011;1272;53.332;9.860;2023-04-24T00:36:37;6.30;;;5.90;;
2522;SDS011;1272;53.332;9.860;2023-04-24T00:39:03;6.13;;;5.63;;
2522;SDS011;1272;53.332;9.860;2023-04-24T00:41:29;5.90;;;5.30;;
2522;SDS011;1272;53.332;9.860;2023-04-24T00:43:55;6.17;;;5.70;;
2522;SDS011;1272;53.332;9.860;2023-04-24T00:46:21;5.77;;;5.27;;
2522;SDS011;1272;53.332;9.860;2023-04-24T00:48:47;5.67;;;5.20;;
2522;SDS011;1272;53.332;9.860;2023-04-24T00:51:12;6.20;;;5.70;;
2522;SDS011;1272;53.332;9.860;2023-04-24T00:53:38;5.10;;;4.80;;
2522;SDS011;1272;53.332;9.860;2023-04-24T00:56:04;4.93;;;4.63;;
2522;SDS011;1272;53.332;9.860;2023-04-24T00:58:31;5.50;;;5.10;;
2522;SDS011;1272;53.332;9.860;2023-04-24T01:00:57;5.50;;;5.17;;
2522;SDS011;1272;53.332;9.860;2023-04-24T01:03:30;6.00;;;5.40;;
2522;SDS011;1272;53.332;9.860;2023-04-24T01:05:56;5.03;;;4.63;;
2522;SDS011;1272;53.332;9.860;2023-04-24T01:08:23;5.73;;;5.30;;
2522;SDS011;1272;53.332;9.860;2023-04-24T01:10:51;4.87;;;4.57;;
2522;SDS011;1272;53.332;9.860;2023-04-24T01:13:18;4.33;;;4.13;;
2522;SDS011;1272;53.332;9.860;2023-04-24T01:15:45;4.73;;;4.43;;
2522;SDS011;1272;53.332;9.860;2023-04-24T01:18:11;4.53;;;4.23;;
2522;SDS011;1272;53.332;9.860;2023-04-24T01:20:39;4.20;;;4.00;;
2522;SDS011;1272;53.332;9.860;2023-04-24T01:23:05;4.63;;;4.33;;
2522;SDS011;1272;53.332;9.860;2023-04-24T01:25:32;4.33;;;4.13;;
2522;SDS011;1272;53.332;9.860;2023-04-24T01:27:58;4.37;;;4.13;;
2522;SDS011;1272;53.332;9.860;2023-04-24T01:30:25;4.23;;;3.93;;
2522;SDS011;1272;53.332;9.860;2023-04-24T01:32:51;3.93;;;3.73;;
2522;SDS011;1272;53.332;9.860;2023-04-24T01:35:18;4.27;;;4.07;;
2522;SDS011;1272;53.332;9.860;2023-04-24T01:37:48;3.73;;;3.63;;
2522;SDS011;1272;53.332;9.860;2023-04-24T01:40:14;4.63;;;4.20;;
2522;SDS011;1272;53.332;9.860;2023-04-24T01:42:40;4.83;;;4.43;;
2522;SDS011;1272;53.332;9.860;2023-04-24T01:45:06;4.27;;;4.00;;
2522;SDS011;1272;53.332;9.860;2023-04-24T01:47:35;4.20;;;4.00;;
2522;SDS011;1272;53.332;9.860;2023-04-24T01:50:01;4.27;;;3.97;;
2522;SDS011;1272;53.332;9.860;2023-04-24T01:52:28;4.37;;;4.17;;
2522;SDS011;1272;53.332;9.860;2023-04-24T01:54:56;5.07;;;3.87;;
2522;SDS011;1272;53.332;9.860;2023-04-24T01:57:24;3.80;;;3.60;;
2522;SDS011;1272;53.332;9.860;2023-04-24T01:59:51;3.40;;;3.20;;
2522;SDS011;1272;53.332;9.860;2023-04-24T02:02:16;4.57;;;4.17;;
2522;SDS011;1272;53.332;9.860;2023-04-24T02:04:42;4.13;;;3.90;;
2522;SDS011;1272;53.332;9.860;2023-04-24T02:07:08;4.60;;;4.30;;
2522;SDS011;1272;53.332;9.860;2023-04-24T02:09:34;3.93;;;3.63;;
2522;SDS011;1272;53.332;9.860;2023-04-24T02:11:59;3.80;;;3.60;;
2522;SDS011;1272;53.332;9.860;2023-04-24T02:14:25;3.27;;;3.07;;
2522;SDS011;1272;53.332;9.860;2023-04-24T02:16:51;3.67;;;3.37;;
2522;SDS011;1272;53.332;9.860;2023-04-24T02:19:18;3.93;;;3.63;;
2522;SDS011;1272;53.332;9.860;2023-04-24T02:21:44;3.00;;;2.80;;
2522;SDS011;1272;53.332;9.860;2023-04-24T02:24:10;3.10;;;2.90;;
2522;SDS011;1272;53.332;9.860;2023-04-24T02:26:36;3.13;;;3.03;;
2522;SDS011;1272;53.332;9.860;2023-04-24T02:29:01;3.30;;;3.00;;
2522;SDS011;1272;53.332;9.860;2023-04-24T02:31:27;3.13;;;2.93;;
2522;SDS011;1272;53.332;9.860;2023-04-24T02:33:53;2.73;;;2.63;;
2522;SDS011;1272;53.332;9.860;2023-04-24T02:36:18;3.20;;;3.00;;
2522;SDS011;1272;53.332;9.860;2023-04-24T02:38:44;2.50;;;2.40;;
2522;SDS011;1272;53.332;9.860;2023-04-24T02:41:10;2.70;;;2.50;;
2522;SDS011;1272;53.332;9.860;2023-04-24T02:43:36;2.30;;;2.20;;
2522;SDS011;1272;53.332;9.860;2023-04-24T02:46:01;2.70;;;2.50;;
2522;SDS011;1272;53.332;9.860;2023-04-24T02:48:27;2.30;;;2.20;;
2522;SDS011;1272;53.332;9.860;2023-04-24T02:50:53;2.70;;;2.60;;
2522;SDS011;1272;53.332;9.860;2023-04-24T02:53:19;2.63;;;2.27;;
2522;SDS011;1272;53.332;9.860;2023-04-24T02:55:45;2.37;;;2.27;;
2522;SDS011;1272;53.332;9.860;2023-04-24T02:58:11;2.10;;;1.90;;
2522;SDS011;1272;53.332;9.860;2023-04-24T03:00:38;2.20;;;2.10;;
2522;SDS011;1272;53.332;9.860;2023-04-24T03:03:04;1.80;;;1.70;;
2522;SDS011;1272;53.332;9.860;2023-04-24T03:05:30;2.00;;;1.90;;
2522;SDS011;1272;53.332;9.860;2023-04-24T03:07:56;1.93;;;1.83;;
2522;SDS011;1272;53.332;9.860;2023-04-24T03:10:22;2.00;;;1.87;;
2522;SDS011;1272;53.332;9.860;2023-04-24T03:12:48;1.47;;;1.47;;
2522;SDS011;1272;53.332;9.860;2023-04-24T03:15:14;2.10;;;2.00;;
2522;SDS011;1272;53.332;9.860;2023-04-24T03:17:40;2.20;;;2.10;;
2522;SDS011;1272;53.332;9.860;2023-04-24T03:20:06;1.90;;;1.80;;
2522;SDS011;1272;53.332;9.860;2023-04-24T03:22:35;1.50;;;1.50;;
2522;SDS011;1272;53.332;9.860;2023-04-24T03:25:01;1.87;;;1.77;;
2522;SDS011;1272;53.332;9.860;2023-04-24T03:27:27;1.80;;;1.70;;
2522;SDS011;1272;53.332;9.860;2023-04-24T03:29:52;2.10;;;2.00;;
2522;SDS011;1272;53.332;9.860;2023-04-24T03:32:20;1.70;;;1.60;;
2522;SDS011;1272;53.332;9.860;2023-04-24T03:34:47;2.00;;;1.80;;
2522;SDS011;1272;53.332;9.860;2023-04-24T03:37:13;1.80;;;1.80;;
2522;SDS011;1272;53.332;9.860;2023-04-24T03:39:39;2.17;;;2.07;;
2522;SDS011;1272;53.332;9.860;2023-04-24T03:42:04;1.83;;;1.73;;
2522;SDS011;1272;53.332;9.860;2023-04-24T03:44:30;1.80;;;1.70;;
2522;SDS011;1272;53.332;9.860;2023-04-24T03:46:57;1.77;;;1.67;;
2522;SDS011;1272;53.332;9.860;2023-04-24T03:49:23;1.90;;;1.80;;
2522;SDS011;1272;53.332;9.860;2023-04-24T03:51:48;1.57;;;1.57;;
2522;SDS011;1272;53.332;9.860;2023-04-24T03:54:14;1.80;;;1.73;;
2522;SDS011;1272;53.332;9.860;2023-04-24T03:56:40;2.17;;;2.07;;
2522;SDS011;1272;53.332;9.860;2023-04-24T03:59:05;2.00;;;1.87;;
2522;SDS011;1272;53.332;9.860;2023-04-24T04:01:31;1.90;;;1.80;;
2522;SDS011;1272;53.332;9.860;2023-04-24T04:03:57;1.50;;;1.50;;
2522;SDS011;1272;53.332;9.860;2023-04-24T04:06:22;1.90;;;1.80;;
2522;SDS011;1272;53.332;9.860;2023-04-24T04:08:48;1.57;;;1.47;;
2522;SDS011;1272;53.332;9.860;2023-04-24T04:11:14;1.80;;;1.70;;
2522;SDS011;1272;53.332;9.860;2023-04-24T04:13:40;1.80;;;1.70;;
2522;SDS011;1272;53.332;9.860;2023-04-24T04:16:05;1.80;;;1.70;;
2522;SDS011;1272;53.332;9.860;2023-04-24T04:18:31;1.87;;;1.77;;
2522;SDS011;1272;53.332;9.860;2023-04-24T04:20:57;1.90;;;1.80;;
2522;SDS011;1272;53.332;9.860;2023-04-24T04:23:22;1.53;;;1.53;;
2522;SDS011;1272;53.332;9.860;2023-04-24T04:25:48;2.00;;;1.90;;
2522;SDS011;1272;53.332;9.860;2023-04-24T04:28:14;1.60;;;1.60;;
2522;SDS011;1272;53.332;9.860;2023-04-24T04:30:40;1.70;;;1.70;;
2522;SDS011;1272;53.332;9.860;2023-04-24T04:33:06;1.67;;;1.60;;
2522;SDS011;1272;53.332;9.860;2023-04-24T04:35:33;1.80;;;1.70;;
2522;SDS011;1272;53.332;9.860;2023-04-24T04:37:59;1.50;;;1.40;;
2522;SDS011;1272;53.332;9.860;2023-04-24T04:40:25;2.17;;;2.07;;
2522;SDS011;1272;53.332;9.860;2023-04-24T04:42:53;1.60;;;1.60;;
2522;SDS011;1272;53.332;9.860;2023-04-24T04:45:19;1.60;;;1.60;;
2522;SDS011;1272;53.332;9.860;2023-04-24T04:47:45;2.50;;;1.90;;
2522;SDS011;1272;53.332;9.860;2023-04-24T04:50:11;1.70;;;1.60;;
2522;SDS011;1272;53.332;9.860;2023-04-24T04:52:37;1.30;;;1.30;;
2522;SDS011;1272;53.332;9.860;2023-04-24T04:55:03;1.67;;;1.67;;
2522;SDS011;1272;53.332;9.860;2023-04-24T04:57:30;1.70;;;1.60;;
2522;SDS011;1272;53.332;9.860;2023-04-24T04:59:56;1.30;;;1.30;;
2522;SDS011;1272;53.332;9.860;2023-04-24T05:02:21;1.50;;;1.40;;
2522;SDS011;1272;53.332;9.860;2023-04-24T05:04:47;1.53;;;1.53;;
2522;SDS011;1272;53.332;9.860;2023-04-24T05:07:13;2.80;;;1.57;;
2522;SDS011;1272;53.332;9.860;2023-04-24T05:09:38;1.30;;;1.20;;
2522;SDS011;1272;53.332;9.860;2023-04-24T05:12:04;1.60;;;1.50;;
2522;SDS011;1272;53.332;9.860;2023-04-24T05:14:30;1.80;;;1.40;;
2522;SDS011;1272;53.332;9.860;2023-04-24T05:16:56;1.40;;;1.40;;
2522;SDS011;1272;53.332;9.860;2023-04-24T05:19:21;1.10;;;1.10;;
2522;SDS011;1272;53.332;9.860;2023-04-24T05:21:47;1.20;;;1.20;;
2522;SDS011;1272;53.332;9.860;2023-04-24T05:24:13;1.23;;;1.23;;
2522;SDS011;1272;53.332;9.860;2023-04-24T05:26:38;2.00;;;1.20;;
2522;SDS011;1272;53.332;9.860;2023-04-24T05:29:04;1.80;;;1.70;;
2522;SDS011;1272;53.332;9.860;2023-04-24T05:31:30;1.50;;;1.40;;
2522;SDS011;1272;53.332;9.860;2023-04-24T05:33:55;1.80;;;1.43;;
2522;SDS011;1272;53.332;9.860;2023-04-24T05:36:21;1.70;;;1.70;;
2522;SDS011;1272;53.332;9.860;2023-04-24T05:38:47;2.17;;;1.47;;
2522;SDS011;1272;53.332;9.860;2023-04-24T05:41:12;1.83;;;1.73;;
2522;SDS011;1272;53.332;9.860;2023-04-24T05:43:38;1.73;;;1.63;;
2522;SDS011;1272;53.332;9.860;2023-04-24T05:46:04;1.90;;;1.80;;
2522;SDS011;1272;53.332;9.860;2023-04-24T05:48:29;3.20;;;1.90;;
2522;SDS011;1272;53.332;9.860;2023-04-24T05:50:55;1.37;;;1.37;;
2522;SDS011;1272;53.332;9.860;2023-04-24T05:53:21;2.00;;;1.90;;
2522;SDS011;1272;53.332;9.860;2023-04-24T05:55:47;1.83;;;1.73;;
2522;SDS011;1272;53.332;9.860;2023-04-24T05:58:13;1.80;;;1.70;;
2522;SDS011;1272;53.332;9.860;2023-04-24T06:00:39;1.93;;;1.83;;
2522;SDS011;1272;53.332;9.860;2023-04-24T06:03:07;2.30;;;2.20;;
2522;SDS011;1272;53.332;9.860;2023-04-24T06:05:33;2.30;;;2.20;;
2522;SDS011;1272;53.332;9.860;2023-04-24T06:07:59;2.80;;;2.07;;
2522;SDS011;1272;53.332;9.860;2023-04-24T06:10:25;2.43;;;2.10;;
2522;SDS011;1272;53.332;9.860;2023-04-24T06:12:51;2.00;;;1.90;;
2522;SDS011;1272;53.332;9.860;2023-04-24T06:15:17;2.17;;;1.80;;
2522;SDS011;1272;53.332;9.860;2023-04-24T06:17:42;2.33;;;2.23;;
2522;SDS011;1272;53.332;9.860;2023-04-24T06:20:08;3.67;;;1.97;;
2522;SDS011;1272;53.332;9.860;2023-04-24T06:22:35;2.47;;;2.37;;
2522;SDS011;1272;53.332;9.860;2023-04-24T06:25:01;2.60;;;2.50;;
2522;SDS011;1272;53.332;9.860;2023-04-24T06:27:27;2.50;;;2.40;;
2522;SDS011;1272;53.332;9.860;2023-04-24T06:29:53;2.90;;;2.70;;
2522;SDS011;1272;53.332;9.860;2023-04-24T06:32:23;2.70;;;2.60;;
2522;SDS011;1272;53.332;9.860;2023-04-24T06:34:51;3.43;;;2.80;;
2522;SDS011;1272;53.332;9.860;2023-04-24T06:37:17;2.83;;;2.67;;
2522;SDS011;1272;53.332;9.860;2023-04-24T06:39:44;2.63;;;2.53;;
2522;SDS011;1272;53.332;9.860;2023-04-24T06:42:10;2.97;;;2.87;;
2522;SDS011;1272;53.332;9.860;2023-04-24T06:44:36;4.13;;;3.30;;
2522;SDS011;1272;53.332;9.860;2023-04-24T06:47:06;3.20;;;2.90;;
2522;SDS011;1272;53.332;9.860;2023-04-24T06:49:33;3.63;;;3.33;;
2522;SDS011;1272;53.332;9.860;2023-04-24T06:52:02;3.17;;;2.97;;
2522;SDS011;1272;53.332;9.860;2023-04-24T06:54:28;3.73;;;3.53;;
2522;SDS011;1272;53.332;9.860;2023-04-24T06:56:55;4.57;;;4.23;;
2522;SDS011;1272;53.332;9.860;2023-04-24T06:59:22;3.70;;;3.40;;
2522;SDS011;1272;53.332;9.860;2023-04-24T07:01:48;3.87;;;3.67;;
2522;SDS011;1272;53.332;9.860;2023-04-24T07:04:14;5.10;;;4.80;;
2522;SDS011;1272;53.332;9.860;2023-04-24T07:06:40;4.20;;;3.93;;
2522;SDS011;1272;53.332;9.860;2023-04-24T07:09:08;4.20;;;3.83;;
2522;SDS011;1272;53.332;9.860;2023-04-24T07:11:34;4.63;;;4.30;;
2522;SDS011;1272;53.332;9.860;2023-04-24T07:14:00;4.60;;;4.30;;
2522;SDS011;1272;53.332;9.860;2023-04-24T07:16:26;4.70;;;4.47;;
2522;SDS011;1272;53.332;9.860;2023-04-24T07:18:52;5.37;;;4.97;;
2522;SDS011;1272;53.332;9.860;2023-04-24T07:21:17;6.97;;;6.47;;
2522;SDS011;1272;53.332;9.860;2023-04-24T07:23:43;5.53;;;5.23;;
2522;SDS011;1272;53.332;9.860;2023-04-24T07:26:09;4.60;;;4.30;;
2522;SDS011;1272;53.332;9.860;2023-04-24T07:28:34;5.10;;;4.80;;
2522;SDS011;1272;53.332;9.860;2023-04-24T07:31:01;5.83;;;5.43;;
2522;SDS011;1272;53.332;9.860;2023-04-24T07:33:26;4.60;;;4.30;;
2522;SDS011;1272;53.332;9.860;2023-04-24T07:35:52;5.27;;;4.90;;
2522;SDS011;1272;53.332;9.860;2023-04-24T07:38:18;5.73;;;5.23;;
2522;SDS011;1272;53.332;9.860;2023-04-24T07:40:47;5.33;;;4.93;;
2522;SDS011;1272;53.332;9.860;2023-04-24T07:43:13;4.77;;;4.40;;
2522;SDS011;1272;53.332;9.860;2023-04-24T07:45:39;5.13;;;4.80;;
2522;SDS011;1272;53.332;9.860;2023-04-24T07:48:05;6.33;;;5.83;;
2522;SDS011;1272;53.332;9.860;2023-04-24T07:50:31;6.47;;;5.97;;
2522;SDS011;1272;53.332;9.860;2023-04-24T07:52:57;6.10;;;5.70;;
2522;SDS011;1272;53.332;9.860;2023-04-24T07:55:23;7.03;;;6.53;;
2522;SDS011;1272;53.332;9.860;2023-04-24T07:57:48;7.03;;;6.53;;
2522;SDS011;1272;53.332;9.860;2023-04-24T08:00:14;7.00;;;6.47;;
2522;SDS011;1272;53.332;9.860;2023-04-24T08:02:40;8.60;;;7.90;;
2522;SDS011;1272;53.332;9.860;2023-04-24T08:05:06;7.43;;;6.93;;
2522;SDS011;1272;53.332;9.860;2023-04-24T08:07:32;8.57;;;7.40;;
2522;SDS011;1272;53.332;9.860;2023-04-24T08:09:58;7.10;;;6.60;;
2522;SDS011;1272;53.332;9.860;2023-04-24T08:12:24;8.33;;;7.73;;
2522;SDS011;1272;53.332;9.860;2023-04-24T08:14:50;8.33;;;7.67;;
2522;SDS011;1272;53.332;9.860;2023-04-24T08:17:16;7.80;;;7.10;;
2522;SDS011;1272;53.332;9.860;2023-04-24T08:19:42;8.10;;;7.50;;
2522;SDS011;1272;53.332;9.860;2023-04-24T08:22:12;6.57;;;6.10;;
2522;SDS011;1272;53.332;9.860;2023-04-24T08:24:38;7.30;;;6.70;;
2522;SDS011;1272;53.332;9.860;2023-04-24T08:27:04;9.97;;;7.23;;
2522;SDS011;1272;53.332;9.860;2023-04-24T08:29:29;6.10;;;5.50;;
2522;SDS011;1272;53.332;9.860;2023-04-24T08:31:55;5.03;;;4.73;;
2522;SDS011;1272;53.332;9.860;2023-04-24T08:34:21;5.70;;;5.30;;
2522;SDS011;1272;53.332;9.860;2023-04-24T08:36:47;6.67;;;5.67;;
2522;SDS011;1272;53.332;9.860;2023-04-24T08:39:14;5.20;;;4.90;;
2522;SDS011;1272;53.332;9.860;2023-04-24T08:41:43;7.23;;;6.73;;
2522;SDS011;1272;53.332;9.860;2023-04-24T08:44:10;6.30;;;5.90;;
2522;SDS011;1272;53.332;9.860;2023-04-24T08:46:39;7.13;;;6.53;;
2522;SDS011;1272;53.332;9.860;2023-04-24T08:49:06;6.73;;;6.13;;
2522;SDS011;1272;53.332;9.860;2023-04-24T08:51:31;6.80;;;6.00;;
2522;SDS011;1272;53.332;9.860;2023-04-24T08:53:57;5.73;;;5.33;;
2522;SDS011;1272;53.332;9.860;2023-04-24T08:56:23;6.37;;;5.87;;
2522;SDS011;1272;53.332;9.860;2023-04-24T08:58:50;6.73;;;6.23;;
2522;SDS011;1272;53.332;9.860;2023-04-24T09:01:17;6.70;;;6.23;;
2522;SDS011;1272;53.332;9.860;2023-04-24T09:03:45;6.40;;;6.00;;
2522;SDS011;1272;53.332;9.860;2023-04-24T09:06:13;6.70;;;6.10;;
2522;SDS011;1272;53.332;9.860;2023-04-24T09:08:41;6.10;;;5.70;;
2522;SDS011;1272;53.332;9.860;2023-04-24T09:11:08;6.30;;;5.80;;
2522;SDS011;1272;53.332;9.860;2023-04-24T09:13:35;6.77;;;6.27;;
2522;SDS011;1272;53.332;9.860;2023-04-24T09:16:02;6.97;;;6.47;;
2522;SDS011;1272;53.332;9.860;2023-04-24T09:18:28;5.97;;;5.57;;
2522;SDS011;1272;53.332;9.860;2023-04-24T09:21:01;7.63;;;6.93;;
2522;SDS011;1272;53.332;9.860;2023-04-24T09:23:29;8.97;;;7.50;;
2522;SDS011;1272;53.332;9.860;2023-04-24T09:25:56;8.13;;;7.33;;
2522;SDS011;1272;53.332;9.860;2023-04-24T09:28:40;7.03;;;6.43;;
2522;SDS011;1272;53.332;9.860;2023-04-24T09:33:40;7.67;;;7.00;;
2522;SDS011;1272;53.332;9.860;2023-04-24T09:36:19;8.53;;;7.83;;
2522;SDS011;1272;53.332;9.860;2023-04-24T09:39:04;8.47;;;7.67;;
2522;SDS011;1272;53.332;9.860;2023-04-24T09:41:35;8.50;;;7.80;;
2522;SDS011;1272;53.332;9.860;2023-04-24T09:44:28;8.70;;;7.90;;
2522;SDS011;1272;53.332;9.860;2023-04-24T09:46:55;9.13;;;8.30;;
2522;SDS011;1272;53.332;9.860;2023-04-24T09:49:26;8.30;;;7.50;;
2522;SDS011;1272;53.332;9.860;2023-04-24T09:52:05;11.50;;;9.80;;
2522;SDS011;1272;53.332;9.860;2023-04-24T09:54:36;9.53;;;8.60;;
2522;SDS011;1272;53.332;9.860;2023-04-24T09:57:02;8.73;;;8.03;;
2522;SDS011;1272;53.332;9.860;2023-04-24T09:59:28;11.10;;;10.00;;
2522;SDS011;1272;53.332;9.860;2023-04-24T10:01:55;10.10;;;9.10;;
2522;SDS011;1272;53.332;9.860;2023-04-24T10:04:22;10.80;;;9.70;;
2522;SDS011;1272;53.332;9.860;2023-04-24T10:06:50;11.57;;;9.60;;
2522;SDS011;1272;53.332;9.860;2023-04-24T10:09:17;16.43;;;10.00;;
2522;SDS011;1272;53.332;9.860;2023-04-24T10:11:45;15.47;;;10.00;;
2522;SDS011;1272;53.332;9.860;2023-04-24T10:14:13;12.07;;;9.83;;
2522;SDS011;1272;53.332;9.860;2023-04-24T10:16:39;11.40;;;9.00;;
2522;SDS011;1272;53.332;9.860;2023-04-24T10:19:06;9.27;;;8.30;;
2522;SDS011;1272;53.332;9.860;2023-04-24T10:21:32;10.47;;;9.47;;
2522;SDS011;1272;53.332;9.860;2023-04-24T10:23:59;13.63;;;9.57;;
2522;SDS011;1272;53.332;9.860;2023-04-24T10:26:28;13.20;;;9.37;;
2522;SDS011;1272;53.332;9.860;2023-04-24T10:28:54;11.53;;;9.80;;
2522;SDS011;1272;53.332;9.860;2023-04-24T10:31:23;12.20;;;10.30;;
2522;SDS011;1272;53.332;9.860;2023-04-24T10:33:50;12.80;;;11.50;;
2522;SDS011;1272;53.332;9.860;2023-04-24T10:36:17;12.20;;;9.73;;
2522;SDS011;1272;53.332;9.860;2023-04-24T10:38:44;11.60;;;10.37;;
2522;SDS011;1272;53.332;9.860;2023-04-24T10:41:13;12.00;;;10.73;;
2522;SDS011;1272;53.332;9.860;2023-04-24T10:43:44;11.47;;;10.33;;
2522;SDS011;1272;53.332;9.860;2023-04-24T10:46:10;9.40;;;8.60;;
2522;SDS011;1272;53.332;9.860;2023-04-24T10:48:51;12.00;;;10.13;;
2522;SDS011;1272;53.332;9.860;2023-04-24T10:51:21;11.13;;;8.70;;
2522;SDS011;1272;53.332;9.860;2023-04-24T10:54:23;11.73;;;10.13;;
2522;SDS011;1272;53.332;9.860;2023-04-24T10:59:43;12.30;;;9.83;;
2522;SDS011;1272;53.332;9.860;2023-04-24T11:02:09;11.20;;;9.23;;
2522;SDS011;1272;53.332;9.860;2023-04-24T11:04:35;9.00;;;8.20;;
2522;SDS011;1272;53.332;9.860;2023-04-24T11:07:02;9.97;;;8.97;;
2522;SDS011;1272;53.332;9.860;2023-04-24T11:09:30;12.23;;;9.20;;
2522;SDS011;1272;53.332;9.860;2023-04-24T11:12:04;10.27;;;7.40;;
2522;SDS011;1272;53.332;9.860;2023-04-24T11:17:33;9.63;;;8.73;;
2522;SDS011;1272;53.332;9.860;2023-04-24T11:20:03;8.13;;;7.17;;
2522;SDS011;1272;53.332;9.860;2023-04-24T11:22:30;8.33;;;7.50;;
2522;SDS011;1272;53.332;9.860;2023-04-24T11:25:00;8.40;;;7.60;;
2522;SDS011;1272;53.332;9.860;2023-04-24T11:27:27;8.47;;;7.43;;
2522;SDS011;1272;53.332;9.860;2023-04-24T11:30:03;7.90;;;7.20;;
2522;SDS011;1272;53.332;9.860;2023-04-24T11:35:05;8.20;;;7.40;;
2522;SDS011;1272;53.332;9.860;2023-04-24T11:37:40;7.17;;;6.50;;
2522;SDS011;1272;53.332;9.860;2023-04-24T11:40:14;6.80;;;6.30;;
2522;SDS011;1272;53.332;9.860;2023-04-24T11:42:51;8.10;;;7.30;;
2522;SDS011;1272;53.332;9.860;2023-04-24T11:45:24;7.17;;;6.57;;
2522;SDS011;1272;53.332;9.860;2023-04-24T11:47:51;6.30;;;5.80;;
2522;SDS011;1272;53.332;9.860;2023-04-24T11:50:19;7.07;;;6.40;;
2522;SDS011;1272;53.332;9.860;2023-04-24T11:52:47;7.17;;;6.10;;
2522;SDS011;1272;53.332;9.860;2023-04-24T11:57:43;7.83;;;7.10;;
2522;SDS011;1272;53.332;9.860;2023-04-24T12:02:45;8.33;;;7.60;;
2522;SDS011;1272;53.332;9.860;2023-04-24T12:05:21;6.63;;;6.10;;
2522;SDS011;1272;53.332;9.860;2023-04-24T12:07:50;6.50;;;6.00;;
2522;SDS011;1272;53.332;9.860;2023-04-24T12:10:23;6.43;;;5.93;;
2522;SDS011;1272;53.332;9.860;2023-04-24T12:12:50;6.13;;;5.73;;
2522;SDS011;1272;53.332;9.860;2023-04-24T12:15:17;4.67;;;4.27;;
2522;SDS011;1272;53.332;9.860;2023-04-24T12:17:45;5.07;;;4.70;;
2522;SDS011;1272;53.332;9.860;2023-04-24T12:20:12;6.33;;;5.10;;
2522;SDS011;1272;53.332;9.860;2023-04-24T12:22:45;5.43;;;5.03;;
2522;SDS011;1272;53.332;9.860;2023-04-24T12:25:12;5.20;;;4.90;;
2522;SDS011;1272;53.332;9.860;2023-04-24T12:27:46;5.10;;;4.80;;
2522;SDS011;1272;53.332;9.860;2023-04-24T12:30:16;5.97;;;5.43;;
2522;SDS011;1272;53.332;9.860;2023-04-24T12:32:42;5.27;;;4.87;;
2522;SDS011;1272;53.332;9.860;2023-04-24T12:35:13;4.97;;;4.57;;
2522;SDS011;1272;53.332;9.860;2023-04-24T12:37:46;4.00;;;3.80;;
2522;SDS011;1272;53.332;9.860;2023-04-24T12:40:12;4.97;;;4.57;;
2522;SDS011;1272;53.332;9.860;2023-04-24T12:42:49;4.60;;;4.40;;
2522;SDS011;1272;53.332;9.860;2023-04-24T12:45:16;4.67;;;4.37;;
2522;SDS011;1272;53.332;9.860;2023-04-24T12:47:43;4.53;;;4.13;;
2522;SDS011;1272;53.332;9.860;2023-04-24T12:50:10;5.13;;;4.83;;
2522;SDS011;1272;53.332;9.860;2023-04-24T12:52:40;6.13;;;4.53;;
2522;SDS011;1272;53.332;9.860;2023-04-24T12:55:06;5.37;;;4.97;;
2522;SDS011;1272;53.332;9.860;2023-04-24T12:57:33;4.30;;;4.00;;
2522;SDS011;1272;53.332;9.860;2023-04-24T13:00:00;4.87;;;4.57;;
2522;SDS011;1272;53.332;9.860;2023-04-24T13:02:27;4.57;;;4.30;;
2522;SDS011;1272;53.332;9.860;2023-04-24T13:04:55;4.53;;;4.23;;
2522;SDS011;1272;53.332;9.860;2023-04-24T13:07:21;5.30;;;4.90;;
2522;SDS011;1272;53.332;9.860;2023-04-24T13:09:47;4.60;;;4.30;;
2522;SDS011;1272;53.332;9.860;2023-04-24T13:12:14;5.13;;;4.73;;
2522;SDS011;1272;53.332;9.860;2023-04-24T13:14:40;4.93;;;4.53;;
2522;SDS011;1272;53.332;9.860;2023-04-24T13:17:06;4.30;;;4.10;;
2522;SDS011;1272;53.332;9.860;2023-04-24T13:19:36;5.13;;;4.80;;
2522;SDS011;1272;53.332;9.860;2023-04-24T13:22:02;6.10;;;4.47;;
2522;SDS011;1272;53.332;9.860;2023-04-24T13:24:29;5.20;;;4.90;;
2522;SDS011;1272;53.332;9.860;2023-04-24T13:26:56;5.23;;;4.83;;
2522;SDS011;1272;53.332;9.860;2023-04-24T13:29:22;4.80;;;4.40;;
2522;SDS011;1272;53.332;9.860;2023-04-24T13:31:49;5.43;;;5.00;;
2522;SDS011;1272;53.332;9.860;2023-04-24T13:34:16;7.10;;;5.20;;
2522;SDS011;1272;53.332;9.860;2023-04-24T13:36:42;5.40;;;4.80;;
2522;SDS011;1272;53.332;9.860;2023-04-24T13:39:08;5.30;;;5.00;;
2522;SDS011;1272;53.332;9.860;2023-04-24T13:41:34;5.57;;;5.10;;
2522;SDS011;1272;53.332;9.860;2023-04-24T13:44:01;4.30;;;4.10;;
2522;SDS011;1272;53.332;9.860;2023-04-24T13:46:27;4.50;;;4.20;;
2522;SDS011;1272;53.332;9.860;2023-04-24T13:48:53;4.60;;;4.30;;
2522;SDS011;1272;53.332;9.860;2023-04-24T13:51:19;3.40;;;3.20;;
2522;SDS011;1272;53.332;9.860;2023-04-24T13:53:45;5.83;;;4.23;;
2522;SDS011;1272;53.332;9.860;2023-04-24T13:56:10;4.20;;;3.90;;
2522;SDS011;1272;53.332;9.860;2023-04-24T13:58:37;4.13;;;3.83;;
2522;SDS011;1272;53.332;9.860;2023-04-24T14:01:03;4.70;;;4.40;;
2522;SDS011;1272;53.332;9.860;2023-04-24T14:03:29;3.63;;;3.43;;
2522;SDS011;1272;53.332;9.860;2023-04-24T14:05:55;3.67;;;3.47;;
2522;SDS011;1272;53.332;9.860;2023-04-24T14:08:21;3.80;;;3.60;;
2522;SDS011;1272;53.332;9.860;2023-04-24T14:10:47;3.57;;;3.37;;
2522;SDS011;1272;53.332;9.860;2023-04-24T14:13:13;3.77;;;3.57;;
2522;SDS011;1272;53.332;9.860;2023-04-24T14:15:39;4.13;;;3.83;;
2522;SDS011;1272;53.332;9.860;2023-04-24T14:18:05;3.60;;;3.30;;
2522;SDS011;1272;53.332;9.860;2023-04-24T14:20:30;3.70;;;3.50;;
2522;SDS011;1272;53.332;9.860;2023-04-24T14:22:57;3.83;;;3.60;;
2522;SDS011;1272;53.332;9.860;2023-04-24T14:25:25;3.90;;;3.70;;
2522;SDS011;1272;53.332;9.860;2023-04-24T14:27:51;3.50;;;3.40;;
2522;SDS011;1272;53.332;9.860;2023-04-24T14:30:19;3.23;;;3.03;;
2522;SDS011;1272;53.332;9.860;2023-04-24T14:32:45;3.20;;;3.00;;
2522;SDS011;1272;53.332;9.860;2023-04-24T14:35:11;2.80;;;2.70;;
2522;SDS011;1272;53.332;9.860;2023-04-24T14:37:37;2.93;;;2.83;;
2522;SDS011;1272;53.332;9.860;2023-04-24T14:40:03;3.40;;;3.10;;
2522;SDS011;1272;53.332;9.860;2023-04-24T14:42:33;3.87;;;3.20;;
2522;SDS011;1272;53.332;9.860;2023-04-24T14:44:59;3.10;;;3.00;;
2522;SDS011;1272;53.332;9.860;2023-04-24T14:47:24;3.03;;;2.83;;
2522;SDS011;1272;53.332;9.860;2023-04-24T14:49:50;3.17;;;2.97;;
2522;SDS011;1272;53.332;9.860;2023-04-24T14:52:16;3.33;;;3.13;;
2522;SDS011;1272;53.332;9.860;2023-04-24T14:54:42;2.90;;;2.70;;
2522;SDS011;1272;53.332;9.860;2023-04-24T14:57:08;3.00;;;2.90;;
2522;SDS011;1272;53.332;9.860;2023-04-24T14:59:34;3.27;;;3.07;;
2522;SDS011;1272;53.332;9.860;2023-04-24T15:02:00;3.70;;;3.50;;
2522;SDS011;1272;53.332;9.860;2023-04-24T15:04:27;4.50;;;4.20;;
2522;SDS011;1272;53.332;9.860;2023-04-24T15:06:53;4.13;;;3.87;;
2522;SDS011;1272;53.332;9.860;2023-04-24T15:09:20;4.70;;;4.30;;
2522;SDS011;1272;53.332;9.860;2023-04-24T15:11:47;5.00;;;4.63;;
2522;SDS011;1272;53.332;9.860;2023-04-24T15:14:14;4.47;;;4.23;;
2522;SDS011;1272;53.332;9.860;2023-04-24T15:16:40;4.53;;;4.13;;
2522;SDS011;1272;53.332;9.860;2023-04-24T15:19:06;4.30;;;4.00;;
2522;SDS011;1272;53.332;9.860;2023-04-24T15:21:31;3.17;;;2.97;;
2522;SDS011;1272;53.332;9.860;2023-04-24T15:23:57;3.10;;;2.80;;
2522;SDS011;1272;53.332;9.860;2023-04-24T15:26:23;3.57;;;2.60;;
2522;SDS011;1272;53.332;9.860;2023-04-24T15:28:50;4.40;;;4.00;;